createdAt,value
2022-10-28T00:03:39.651Z,26.40
2022-10-28T00:33:51.846Z,26.47
2022-10-28T01:04:04.598Z,20.03
2022-10-28T01:34:25.467Z,21.77
2022-10-28T02:04:34.235Z,23.83
2022-10-28T02:34:47.450Z,17.13
2022-10-28T03:04:56.382Z,13.27
2022-10-28T03:35:08.012Z,17.10
2022-10-28T04:05:24.991Z,20.13
2022-10-28T04:35:33.601Z,9.67
2022-10-28T05:05:48.321Z,8.57
2022-10-28T05:35:57.059Z,16.67
2022-10-28T06:06:17.716Z,23.50
2022-10-28T06:36:24.832Z,46.40
2022-10-28T07:06:44.017Z,13.52
2022-10-28T07:36:59.950Z,14.32
2022-10-28T08:07:10.234Z,6.82
2022-10-28T08:37:19.516Z,12.18
2022-10-28T09:07:35.177Z,5.72
2022-10-28T09:37:50.764Z,7.60
2022-10-28T10:08:04.490Z,7.57
2022-10-28T10:38:18.526Z,6.00
2022-10-28T11:08:42.046Z,5.47
2022-10-28T11:39:15.794Z,6.68
2022-10-28T12:09:41.589Z,9.68
2022-10-28T12:40:04.942Z,15.65
2022-10-28T13:10:26.076Z,15.45
2022-10-28T13:41:28.105Z,14.10
2022-10-28T14:11:36.703Z,15.50
2022-10-28T14:42:04.841Z,23.73
2022-10-28T15:12:17.157Z,21.00
2022-10-28T15:42:44.173Z,20.77
2022-10-28T16:12:55.594Z,30.03
2022-10-28T16:43:07.756Z,31.07
2022-10-28T17:13:20.533Z,50.13
2022-10-28T17:43:32.152Z,38.37
2022-10-28T18:13:44.107Z,40.83
2022-10-28T18:43:59.591Z,26.77
2022-10-28T19:14:09.992Z,29.83
2022-10-28T19:44:23.239Z,32.20
2022-10-28T20:14:35.877Z,30.90
2022-10-28T20:44:48.759Z,29.07
2022-10-28T21:14:58.748Z,39.70
2022-10-28T21:45:10.113Z,45.93
2022-10-28T22:15:18.572Z,28.63
2022-10-28T22:45:29.026Z,39.33
2022-10-28T23:15:40.613Z,33.40
2022-10-28T23:45:49.725Z,53.03
